sensor_id;sensor_type;location;lat;lon;timestamp;P1;durP1;ratioP1;P2;durP2;ratioP2
50769;SDS011;36740;48.698;11.472;2023-05-01T00:00:38;7.40;;;5.32;;
50769;SDS011;36740;48.698;11.472;2023-05-01T00:03:23;12.40;;;6.00;;
50769;SDS011;36740;48.698;11.472;2023-05-01T00:06:09;9.65;;;6.28;;
50769;SDS011;36740;48.698;11.472;2023-05-01T00:08:55;11.23;;;5.43;;
50769;SDS011;36740;48.698;11.472;2023-05-01T00:11:40;9.48;;;4.95;;
50769;SDS011;36740;48.698;11.472;2023-05-01T00:14:26;7.93;;;5.90;;
50769;SDS011;36740;48.698;11.472;2023-05-01T00:17:12;8.82;;;4.53;;
50769;SDS011;36740;48.698;11.472;2023-05-01T00:19:58;9.52;;;4.97;;
50769;SDS011;36740;48.698;11.472;2023-05-01T00:22:44;7.88;;;5.20;;
50769;SDS011;36740;48.698;11.472;2023-05-01T00:25:29;9.68;;;5.80;;
50769;SDS011;36740;48.698;11.472;2023-05-01T00:28:17;9.30;;;5.63;;
50769;SDS011;36740;48.698;11.472;2023-05-01T00:31:02;8.85;;;6.53;;
50769;SDS011;36740;48.698;11.472;2023-05-01T00:33:48;7.65;;;4.85;;
50769;SDS011;36740;48.698;11.472;2023-05-01T00:36:33;17.42;;;5.40;;
50769;SDS011;36740;48.698;11.472;2023-05-01T00:39:19;10.70;;;6.13;;
50769;SDS011;36740;48.698;11.472;2023-05-01T00:42:05;8.52;;;6.22;;
50769;SDS011;36740;48.698;11.472;2023-05-01T00:44:51;6.22;;;4.68;;
50769;SDS011;36740;48.698;11.472;2023-05-01T00:47:37;6.05;;;3.75;;
50769;SDS011;36740;48.698;11.472;2023-05-01T00:50:23;11.02;;;5.32;;
50769;SDS011;36740;48.698;11.472;2023-05-01T00:53:08;7.68;;;5.78;;
50769;SDS011;36740;48.698;11.472;2023-05-01T00:55:55;7.18;;;4.90;;
50769;SDS011;36740;48.698;11.472;2023-05-01T00:58:41;6.45;;;3.90;;
50769;SDS011;36740;48.698;11.472;2023-05-01T01:01:28;8.88;;;4.95;;
50769;SDS011;36740;48.698;11.472;2023-05-01T01:04:13;9.13;;;5.88;;
50769;SDS011;36740;48.698;11.472;2023-05-01T01:07:10;6.95;;;4.93;;
50769;SDS011;36740;48.698;11.472;2023-05-01T01:10:34;6.07;;;4.75;;
50769;SDS011;36740;48.698;11.472;2023-05-01T01:13:27;8.40;;;5.88;;
50769;SDS011;36740;48.698;11.472;2023-05-01T01:16:23;7.93;;;4.55;;
50769;SDS011;36740;48.698;11.472;2023-05-01T01:21:59;8.70;;;5.32;;
50769;SDS011;36740;48.698;11.472;2023-05-01T01:30:53;6.80;;;4.68;;
50769;SDS011;36740;48.698;11.472;2023-05-01T01:33:54;5.47;;;4.35;;
50769;SDS011;36740;48.698;11.472;2023-05-01T01:39:28;6.93;;;5.20;;
50769;SDS011;36740;48.698;11.472;2023-05-01T01:42:15;9.38;;;4.93;;
50769;SDS011;36740;48.698;11.472;2023-05-01T01:45:03;5.40;;;4.82;;
50769;SDS011;36740;48.698;11.472;2023-05-01T01:47:50;14.00;;;5.45;;
50769;SDS011;36740;48.698;11.472;2023-05-01T01:50:36;5.63;;;3.83;;
50769;SDS011;36740;48.698;11.472;2023-05-01T01:53:23;7.97;;;3.88;;
50769;SDS011;36740;48.698;11.472;2023-05-01T01:56:10;5.38;;;3.63;;
50769;SDS011;36740;48.698;11.472;2023-05-01T01:58:56;6.22;;;3.90;;
50769;SDS011;36740;48.698;11.472;2023-05-01T02:01:43;9.63;;;4.38;;
50769;SDS011;36740;48.698;11.472;2023-05-01T02:04:29;15.10;;;4.97;;
50769;SDS011;36740;48.698;11.472;2023-05-01T02:07:15;6.78;;;4.63;;
50769;SDS011;36740;48.698;11.472;2023-05-01T02:10:02;8.80;;;4.63;;
50769;SDS011;36740;48.698;11.472;2023-05-01T02:12:50;11.63;;;5.93;;
50769;SDS011;36740;48.698;11.472;2023-05-01T02:15:36;6.07;;;4.90;;
50769;SDS011;36740;48.698;11.472;2023-05-01T02:18:22;7.82;;;5.38;;
50769;SDS011;36740;48.698;11.472;2023-05-01T02:21:08;8.95;;;6.47;;
50769;SDS011;36740;48.698;11.472;2023-05-01T02:23:55;5.55;;;4.47;;
50769;SDS011;36740;48.698;11.472;2023-05-01T02:26:42;7.20;;;4.55;;
50769;SDS011;36740;48.698;11.472;2023-05-01T02:29:28;6.95;;;4.28;;
50769;SDS011;36740;48.698;11.472;2023-05-01T02:32:13;6.75;;;5.22;;
50769;SDS011;36740;48.698;11.472;2023-05-01T02:34:59;6.00;;;4.30;;
50769;SDS011;36740;48.698;11.472;2023-05-01T02:37:45;7.03;;;4.05;;
50769;SDS011;36740;48.698;11.472;2023-05-01T02:40:31;6.22;;;4.85;;
50769;SDS011;36740;48.698;11.472;2023-05-01T02:43:19;10.25;;;4.22;;
50769;SDS011;36740;48.698;11.472;2023-05-01T02:46:05;9.40;;;5.18;;
50769;SDS011;36740;48.698;11.472;2023-05-01T02:48:52;8.10;;;5.65;;
50769;SDS011;36740;48.698;11.472;2023-05-01T02:51:38;10.32;;;5.38;;
50769;SDS011;36740;48.698;11.472;2023-05-01T02:54:24;6.90;;;5.18;;
50769;SDS011;36740;48.698;11.472;2023-05-01T02:57:10;8.90;;;5.70;;
50769;SDS011;36740;48.698;11.472;2023-05-01T02:59:55;4.82;;;3.95;;
50769;SDS011;36740;48.698;11.472;2023-05-01T03:02:41;7.07;;;4.30;;
50769;SDS011;36740;48.698;11.472;2023-05-01T03:05:27;6.68;;;4.55;;
50769;SDS011;36740;48.698;11.472;2023-05-01T03:08:12;7.22;;;5.07;;
50769;SDS011;36740;48.698;11.472;2023-05-01T03:10:58;6.95;;;5.15;;
50769;SDS011;36740;48.698;11.472;2023-05-01T03:13:43;7.88;;;5.10;;
50769;SDS011;36740;48.698;11.472;2023-05-01T03:16:30;6.28;;;4.57;;
50769;SDS011;36740;48.698;11.472;2023-05-01T03:19:16;8.73;;;5.55;;
50769;SDS011;36740;48.698;11.472;2023-05-01T03:22:01;10.88;;;6.57;;
50769;SDS011;36740;48.698;11.472;2023-05-01T03:24:48;7.47;;;3.90;;
50769;SDS011;36740;48.698;11.472;2023-05-01T03:27:35;8.13;;;4.68;;
50769;SDS011;36740;48.698;11.472;2023-05-01T03:30:20;7.78;;;5.47;;
50769;SDS011;36740;48.698;11.472;2023-05-01T03:33:06;13.32;;;5.88;;
50769;SDS011;36740;48.698;11.472;2023-05-01T03:35:58;12.88;;;4.70;;
50769;SDS011;36740;48.698;11.472;2023-05-01T03:38:44;10.65;;;4.93;;
50769;SDS011;36740;48.698;11.472;2023-05-01T03:41:31;9.13;;;5.03;;
50769;SDS011;36740;48.698;11.472;2023-05-01T03:44:17;8.15;;;5.15;;
50769;SDS011;36740;48.698;11.472;2023-05-01T03:47:02;7.40;;;4.93;;
50769;SDS011;36740;48.698;11.472;2023-05-01T03:49:49;9.77;;;5.88;;
50769;SDS011;36740;48.698;11.472;2023-05-01T03:52:35;8.20;;;5.07;;
50769;SDS011;36740;48.698;11.472;2023-05-01T03:55:20;9.60;;;5.88;;
50769;SDS011;36740;48.698;11.472;2023-05-01T03:58:06;10.57;;;5.47;;
50769;SDS011;36740;48.698;11.472;2023-05-01T04:00:53;8.20;;;5.47;;
50769;SDS011;36740;48.698;11.472;2023-05-01T04:03:38;11.63;;;5.03;;
50769;SDS011;36740;48.698;11.472;2023-05-01T04:06:24;7.03;;;5.15;;
50769;SDS011;36740;48.698;11.472;2023-05-01T04:09:10;9.68;;;5.40;;
50769;SDS011;36740;48.698;11.472;2023-05-01T04:11:56;5.55;;;3.75;;
50769;SDS011;36740;48.698;11.472;2023-05-01T04:14:42;5.20;;;3.92;;
50769;SDS011;36740;48.698;11.472;2023-05-01T04:17:28;9.60;;;5.65;;
50769;SDS011;36740;48.698;11.472;2023-05-01T04:20:14;9.70;;;5.63;;
50769;SDS011;36740;48.698;11.472;2023-05-01T04:23:02;6.53;;;5.85;;
50769;SDS011;36740;48.698;11.472;2023-05-01T04:25:48;7.50;;;4.85;;
50769;SDS011;36740;48.698;11.472;2023-05-01T04:28:33;16.45;;;6.63;;
50769;SDS011;36740;48.698;11.472;2023-05-01T04:31:19;6.68;;;4.72;;
50769;SDS011;36740;48.698;11.472;2023-05-01T04:34:04;5.32;;;4.30;;
50769;SDS011;36740;48.698;11.472;2023-05-01T04:36:51;6.95;;;5.22;;
50769;SDS011;36740;48.698;11.472;2023-05-01T04:39:36;13.82;;;4.97;;
50769;SDS011;36740;48.698;11.472;2023-05-01T04:42:22;8.02;;;5.22;;
50769;SDS011;36740;48.698;11.472;2023-05-01T04:45:08;6.93;;;4.28;;
50769;SDS011;36740;48.698;11.472;2023-05-01T04:47:53;8.57;;;5.47;;
50769;SDS011;36740;48.698;11.472;2023-05-01T04:50:39;8.90;;;5.63;;
50769;SDS011;36740;48.698;11.472;2023-05-01T04:53:25;9.05;;;5.13;;
50769;SDS011;36740;48.698;11.472;2023-05-01T04:56:10;5.68;;;4.45;;
50769;SDS011;36740;48.698;11.472;2023-05-01T04:58:56;8.40;;;4.32;;
50769;SDS011;36740;48.698;11.472;2023-05-01T05:01:42;9.18;;;5.72;;
50769;SDS011;36740;48.698;11.472;2023-05-01T05:04:28;6.93;;;4.35;;
50769;SDS011;36740;48.698;11.472;2023-05-01T05:07:13;9.70;;;4.80;;
50769;SDS011;36740;48.698;11.472;2023-05-01T05:09:59;7.50;;;4.82;;
50769;SDS011;36740;48.698;11.472;2023-05-01T05:12:45;8.60;;;5.15;;
50769;SDS011;36740;48.698;11.472;2023-05-01T05:15:30;7.70;;;5.13;;
50769;SDS011;36740;48.698;11.472;2023-05-01T05:18:16;6.57;;;5.55;;
50769;SDS011;36740;48.698;11.472;2023-05-01T05:21:02;8.05;;;5.55;;
50769;SDS011;36740;48.698;11.472;2023-05-01T05:23:48;12.20;;;6.18;;
50769;SDS011;36740;48.698;11.472;2023-05-01T05:26:33;10.23;;;5.40;;
50769;SDS011;36740;48.698;11.472;2023-05-01T05:29:19;7.40;;;5.05;;
50769;SDS011;36740;48.698;11.472;2023-05-01T05:32:04;12.10;;;7.22;;
50769;SDS011;36740;48.698;11.472;2023-05-01T05:34:50;8.40;;;5.63;;
50769;SDS011;36740;48.698;11.472;2023-05-01T05:37:36;10.88;;;5.60;;
50769;SDS011;36740;48.698;11.472;2023-05-01T05:40:21;9.88;;;5.80;;
50769;SDS011;36740;48.698;11.472;2023-05-01T05:43:07;10.73;;;6.30;;
50769;SDS011;36740;48.698;11.472;2023-05-01T05:45:56;7.72;;;5.38;;
50769;SDS011;36740;48.698;11.472;2023-05-01T05:48:42;8.93;;;5.63;;
50769;SDS011;36740;48.698;11.472;2023-05-01T05:51:27;10.07;;;4.82;;
50769;SDS011;36740;48.698;11.472;2023-05-01T05:54:13;8.30;;;5.68;;
50769;SDS011;36740;48.698;11.472;2023-05-01T05:56:59;8.95;;;6.68;;
50769;SDS011;36740;48.698;11.472;2023-05-01T05:59:44;9.27;;;5.72;;
50769;SDS011;36740;48.698;11.472;2023-05-01T06:02:30;15.82;;;6.03;;
50769;SDS011;36740;48.698;11.472;2023-05-01T06:05:16;10.02;;;5.82;;
50769;SDS011;36740;48.698;11.472;2023-05-01T06:08:02;9.70;;;5.88;;
50769;SDS011;36740;48.698;11.472;2023-05-01T06:10:48;8.95;;;5.10;;
50769;SDS011;36740;48.698;11.472;2023-05-01T06:13:33;8.85;;;6.07;;
50769;SDS011;36740;48.698;11.472;2023-05-01T06:16:19;8.73;;;5.95;;
50769;SDS011;36740;48.698;11.472;2023-05-01T06:19:05;9.20;;;5.43;;
50769;SDS011;36740;48.698;11.472;2023-05-01T06:21:52;8.52;;;5.72;;
50769;SDS011;36740;48.698;11.472;2023-05-01T06:24:37;9.35;;;5.50;;
50769;SDS011;36740;48.698;11.472;2023-05-01T06:27:24;10.77;;;5.75;;
50769;SDS011;36740;48.698;11.472;2023-05-01T06:30:10;8.10;;;5.50;;
50769;SDS011;36740;48.698;11.472;2023-05-01T06:32:55;10.75;;;6.80;;
50769;SDS011;36740;48.698;11.472;2023-05-01T06:35:41;9.73;;;4.60;;
50769;SDS011;36740;48.698;11.472;2023-05-01T06:38:26;9.45;;;5.43;;
50769;SDS011;36740;48.698;11.472;2023-05-01T06:41:12;9.13;;;6.82;;
50769;SDS011;36740;48.698;11.472;2023-05-01T06:43:58;7.93;;;5.22;;
50769;SDS011;36740;48.698;11.472;2023-05-01T06:46:43;9.45;;;5.35;;
50769;SDS011;36740;48.698;11.472;2023-05-01T06:49:29;6.95;;;4.55;;
50769;SDS011;36740;48.698;11.472;2023-05-01T06:52:14;7.25;;;4.82;;
50769;SDS011;36740;48.698;11.472;2023-05-01T06:55:00;10.85;;;5.60;;
50769;SDS011;36740;48.698;11.472;2023-05-01T06:57:46;7.70;;;4.97;;
50769;SDS011;36740;48.698;11.472;2023-05-01T07:00:32;10.32;;;5.18;;
50769;SDS011;36740;48.698;11.472;2023-05-01T07:03:19;9.57;;;5.05;;
50769;SDS011;36740;48.698;11.472;2023-05-01T07:06:05;10.90;;;5.40;;
50769;SDS011;36740;48.698;11.472;2023-05-01T07:08:50;9.27;;;5.30;;
50769;SDS011;36740;48.698;11.472;2023-05-01T07:11:36;11.05;;;5.38;;
50769;SDS011;36740;48.698;11.472;2023-05-01T07:14:22;13.65;;;5.88;;
50769;SDS011;36740;48.698;11.472;2023-05-01T07:17:08;6.10;;;4.57;;
50769;SDS011;36740;48.698;11.472;2023-05-01T07:19:54;12.38;;;4.97;;
50769;SDS011;36740;48.698;11.472;2023-05-01T07:22:39;8.18;;;5.18;;
50769;SDS011;36740;48.698;11.472;2023-05-01T07:25:25;13.50;;;4.63;;
50769;SDS011;36740;48.698;11.472;2023-05-01T07:28:10;10.30;;;5.38;;
50769;SDS011;36740;48.698;11.472;2023-05-01T07:30:56;7.85;;;5.25;;
50769;SDS011;36740;48.698;11.472;2023-05-01T07:33:42;10.57;;;5.03;;
50769;SDS011;36740;48.698;11.472;2023-05-01T07:36:27;11.98;;;5.28;;
50769;SDS011;36740;48.698;11.472;2023-05-01T07:39:16;9.20;;;5.00;;
50769;SDS011;36740;48.698;11.472;2023-05-01T07:42:02;10.45;;;4.80;;
50769;SDS011;36740;48.698;11.472;2023-05-01T07:44:49;10.85;;;5.82;;
50769;SDS011;36740;48.698;11.472;2023-05-01T07:47:34;8.15;;;3.92;;
50769;SDS011;36740;48.698;11.472;2023-05-01T07:50:20;11.30;;;5.93;;
50769;SDS011;36740;48.698;11.472;2023-05-01T07:53:07;15.40;;;6.95;;
50769;SDS011;36740;48.698;11.472;2023-05-01T07:55:52;7.25;;;5.00;;
50769;SDS011;36740;48.698;11.472;2023-05-01T07:58:38;9.02;;;5.68;;
50769;SDS011;36740;48.698;11.472;2023-05-01T08:01:25;9.35;;;5.53;;
50769;SDS011;36740;48.698;11.472;2023-05-01T08:04:11;11.65;;;6.40;;
50769;SDS011;36740;48.698;11.472;2023-05-01T08:06:58;6.70;;;4.72;;
50769;SDS011;36740;48.698;11.472;2023-05-01T08:09:44;10.93;;;5.35;;
50769;SDS011;36740;48.698;11.472;2023-05-01T08:12:30;7.72;;;4.13;;
50769;SDS011;36740;48.698;11.472;2023-05-01T08:15:16;9.02;;;4.57;;
50769;SDS011;36740;48.698;11.472;2023-05-01T08:18:01;7.72;;;4.20;;
50769;SDS011;36740;48.698;11.472;2023-05-01T08:20:47;8.35;;;5.32;;
50769;SDS011;36740;48.698;11.472;2023-05-01T08:23:33;6.40;;;3.65;;
50769;SDS011;36740;48.698;11.472;2023-05-01T08:26:18;5.50;;;3.65;;
50769;SDS011;36740;48.698;11.472;2023-05-01T08:29:04;6.70;;;4.13;;
50769;SDS011;36740;48.698;11.472;2023-05-01T08:31:49;7.47;;;4.05;;
50769;SDS011;36740;48.698;11.472;2023-05-01T08:34:35;7.25;;;3.90;;
50769;SDS011;36740;48.698;11.472;2023-05-01T08:37:21;7.47;;;5.22;;
50769;SDS011;36740;48.698;11.472;2023-05-01T08:40:06;7.75;;;4.35;;
50769;SDS011;36740;48.698;11.472;2023-05-01T08:42:53;9.73;;;4.22;;
50769;SDS011;36740;48.698;11.472;2023-05-01T08:45:40;6.07;;;3.28;;
50769;SDS011;36740;48.698;11.472;2023-05-01T08:48:27;8.15;;;3.13;;
50769;SDS011;36740;48.698;11.472;2023-05-01T08:51:12;8.63;;;4.57;;
50769;SDS011;36740;48.698;11.472;2023-05-01T08:54:00;8.13;;;5.15;;
50769;SDS011;36740;48.698;11.472;2023-05-01T08:56:47;10.07;;;4.53;;
50769;SDS011;36740;48.698;11.472;2023-05-01T08:59:35;6.78;;;4.75;;
50769;SDS011;36740;48.698;11.472;2023-05-01T09:02:21;6.03;;;3.28;;
50769;SDS011;36740;48.698;11.472;2023-05-01T09:05:07;9.13;;;4.10;;
50769;SDS011;36740;48.698;11.472;2023-05-01T09:07:53;5.32;;;3.47;;
50769;SDS011;36740;48.698;11.472;2023-05-01T09:10:40;8.52;;;4.35;;
50769;SDS011;36740;48.698;11.472;2023-05-01T09:13:27;10.90;;;4.75;;
50769;SDS011;36740;48.698;11.472;2023-05-01T09:16:12;8.32;;;5.13;;
50769;SDS011;36740;48.698;11.472;2023-05-01T09:18:58;6.72;;;3.55;;
50769;SDS011;36740;48.698;11.472;2023-05-01T09:21:44;7.40;;;4.32;;
50769;SDS011;36740;48.698;11.472;2023-05-01T09:24:29;10.35;;;4.00;;
50769;SDS011;36740;48.698;11.472;2023-05-01T09:27:15;7.30;;;5.05;;
50769;SDS011;36740;48.698;11.472;2023-05-01T09:30:00;6.20;;;4.20;;
50769;SDS011;36740;48.698;11.472;2023-05-01T09:32:46;13.45;;;5.15;;
50769;SDS011;36740;48.698;11.472;2023-05-01T09:35:54;8.88;;;4.38;;
50769;SDS011;36740;48.698;11.472;2023-05-01T09:38:42;6.90;;;4.18;;
50769;SDS011;36740;48.698;11.472;2023-05-01T09:41:27;7.28;;;4.30;;
50769;SDS011;36740;48.698;11.472;2023-05-01T09:44:16;7.10;;;4.60;;
50769;SDS011;36740;48.698;11.472;2023-05-01T09:47:03;11.63;;;5.50;;
50769;SDS011;36740;48.698;11.472;2023-05-01T09:49:49;9.63;;;5.30;;
50769;SDS011;36740;48.698;11.472;2023-05-01T09:52:34;7.13;;;5.22;;
50769;SDS011;36740;48.698;11.472;2023-05-01T09:55:20;10.70;;;5.93;;
50769;SDS011;36740;48.698;11.472;2023-05-01T09:58:07;11.93;;;5.93;;
50769;SDS011;36740;48.698;11.472;2023-05-01T10:01:10;11.07;;;7.55;;
50769;SDS011;36740;48.698;11.472;2023-05-01T10:03:56;11.10;;;5.80;;
50769;SDS011;36740;48.698;11.472;2023-05-01T10:06:41;15.25;;;6.72;;
50769;SDS011;36740;48.698;11.472;2023-05-01T10:09:27;23.98;;;6.05;;
50769;SDS011;36740;48.698;11.472;2023-05-01T10:12:21;10.38;;;4.97;;
50769;SDS011;36740;48.698;11.472;2023-05-01T10:15:07;17.75;;;5.97;;
50769;SDS011;36740;48.698;11.472;2023-05-01T10:17:54;11.13;;;5.38;;
50769;SDS011;36740;48.698;11.472;2023-05-01T10:20:39;9.93;;;6.90;;
50769;SDS011;36740;48.698;11.472;2023-05-01T10:23:25;11.70;;;7.40;;
50769;SDS011;36740;48.698;11.472;2023-05-01T10:26:11;10.50;;;6.68;;
50769;SDS011;36740;48.698;11.472;2023-05-01T10:28:58;12.43;;;6.07;;
50769;SDS011;36740;48.698;11.472;2023-05-01T10:31:45;10.23;;;6.20;;
50769;SDS011;36740;48.698;11.472;2023-05-01T10:34:42;11.48;;;7.75;;
50769;SDS011;36740;48.698;11.472;2023-05-01T10:37:33;10.93;;;6.65;;
50769;SDS011;36740;48.698;11.472;2023-05-01T10:41:05;16.67;;;8.00;;
50769;SDS011;36740;48.698;11.472;2023-05-01T10:43:26;12.00;;;7.53;;
50769;SDS011;36740;48.698;11.472;2023-05-01T10:49:03;15.95;;;8.60;;
50769;SDS011;36740;48.698;11.472;2023-05-01T10:52:06;8.73;;;5.13;;
50769;SDS011;36740;48.698;11.472;2023-05-01T10:54:52;12.27;;;8.20;;
50769;SDS011;36740;48.698;11.472;2023-05-01T10:57:41;13.48;;;7.22;;
50769;SDS011;36740;48.698;11.472;2023-05-01T11:00:28;12.82;;;7.72;;
50769;SDS011;36740;48.698;11.472;2023-05-01T11:06:11;11.00;;;7.95;;
50769;SDS011;36740;48.698;11.472;2023-05-01T11:08:58;10.98;;;7.65;;
50769;SDS011;36740;48.698;11.472;2023-05-01T11:11:47;11.15;;;5.97;;
50769;SDS011;36740;48.698;11.472;2023-05-01T11:15:19;15.50;;;6.78;;
50769;SDS011;36740;48.698;11.472;2023-05-01T11:23:15;12.20;;;8.60;;
50769;SDS011;36740;48.698;11.472;2023-05-01T11:26:01;12.70;;;6.82;;
50769;SDS011;36740;48.698;11.472;2023-05-01T11:28:49;14.77;;;8.45;;
50769;SDS011;36740;48.698;11.472;2023-05-01T11:31:38;15.60;;;8.00;;
50769;SDS011;36740;48.698;11.472;2023-05-01T11:34:23;14.55;;;8.00;;
50769;SDS011;36740;48.698;11.472;2023-05-01T11:37:11;14.95;;;9.40;;
50769;SDS011;36740;48.698;11.472;2023-05-01T11:39:56;12.57;;;7.97;;
50769;SDS011;36740;48.698;11.472;2023-05-01T11:42:42;25.67;;;9.32;;
50769;SDS011;36740;48.698;11.472;2023-05-01T11:45:28;11.88;;;8.38;;
50769;SDS011;36740;48.698;11.472;2023-05-01T11:48:17;12.77;;;7.78;;
50769;SDS011;36740;48.698;11.472;2023-05-01T11:51:10;14.07;;;9.40;;
50769;SDS011;36740;48.698;11.472;2023-05-01T11:54:06;12.80;;;8.77;;
50769;SDS011;36740;48.698;11.472;2023-05-01T11:56:58;14.60;;;9.60;;
50769;SDS011;36740;48.698;11.472;2023-05-01T11:59:45;12.70;;;8.98;;
50769;SDS011;36740;48.698;11.472;2023-05-01T12:02:31;11.68;;;8.98;;
50769;SDS011;36740;48.698;11.472;2023-05-01T12:05:17;13.38;;;9.13;;
50769;SDS011;36740;48.698;11.472;2023-05-01T12:08:10;11.50;;;8.27;;
50769;SDS011;36740;48.698;11.472;2023-05-01T12:10:58;12.98;;;6.72;;
50769;SDS011;36740;48.698;11.472;2023-05-01T12:13:44;16.45;;;8.43;;
50769;SDS011;36740;48.698;11.472;2023-05-01T12:16:36;8.73;;;5.68;;
50769;SDS011;36740;48.698;11.472;2023-05-01T12:19:22;12.93;;;8.05;;
50769;SDS011;36740;48.698;11.472;2023-05-01T12:22:07;15.90;;;8.80;;
50769;SDS011;36740;48.698;11.472;2023-05-01T12:24:53;11.82;;;7.35;;
50769;SDS011;36740;48.698;11.472;2023-05-01T12:27:42;14.70;;;8.00;;
50769;SDS011;36740;48.698;11.472;2023-05-01T12:30:29;12.02;;;7.47;;
50769;SDS011;36740;48.698;11.472;2023-05-01T12:33:15;13.27;;;7.88;;
50769;SDS011;36740;48.698;11.472;2023-05-01T12:36:08;11.05;;;7.47;;
50769;SDS011;36740;48.698;11.472;2023-05-01T12:39:02;9.30;;;6.03;;
50769;SDS011;36740;48.698;11.472;2023-05-01T12:41:49;18.35;;;9.70;;
50769;SDS011;36740;48.698;11.472;2023-05-01T12:44:56;13.38;;;7.05;;
50769;SDS011;36740;48.698;11.472;2023-05-01T12:47:42;11.65;;;8.25;;
50769;SDS011;36740;48.698;11.472;2023-05-01T12:50:34;16.38;;;9.13;;
50769;SDS011;36740;48.698;11.472;2023-05-01T12:53:21;11.18;;;8.20;;
50769;SDS011;36740;48.698;11.472;2023-05-01T12:56:07;12.07;;;6.53;;
50769;SDS011;36740;48.698;11.472;2023-05-01T12:58:53;10.13;;;6.97;;
50769;SDS011;36740;48.698;11.472;2023-05-01T13:01:39;14.25;;;7.57;;
50769;SDS011;36740;48.698;11.472;2023-05-01T13:04:25;12.40;;;7.93;;
50769;SDS011;36740;48.698;11.472;2023-05-01T13:07:13;11.35;;;6.80;;
50769;SDS011;36740;48.698;11.472;2023-05-01T13:10:00;17.42;;;7.80;;
50769;SDS011;36740;48.698;11.472;2023-05-01T13:12:45;16.45;;;8.27;;
50769;SDS011;36740;48.698;11.472;2023-05-01T13:15:31;11.85;;;7.10;;
50769;SDS011;36740;48.698;11.472;2023-05-01T13:18:17;10.13;;;6.97;;
50769;SDS011;36740;48.698;11.472;2023-05-01T13:21:06;15.95;;;9.00;;
50769;SDS011;36740;48.698;11.472;2023-05-01T13:24:02;11.33;;;7.53;;
50769;SDS011;36740;48.698;11.472;2023-05-01T13:26:47;10.80;;;7.55;;
50769;SDS011;36740;48.698;11.472;2023-05-01T13:29:43;13.10;;;6.20;;
50769;SDS011;36740;48.698;11.472;2023-05-01T13:32:37;12.88;;;8.10;;
50769;SDS011;36740;48.698;11.472;2023-05-01T13:35:24;12.20;;;6.60;;
50769;SDS011;36740;48.698;11.472;2023-05-01T13:38:10;10.18;;;6.63;;
50769;SDS011;36740;48.698;11.472;2023-05-01T13:40:57;17.52;;;7.00;;
50769;SDS011;36740;48.698;11.472;2023-05-01T13:43:42;13.85;;;9.35;;
50769;SDS011;36740;48.698;11.472;2023-05-01T13:46:28;12.60;;;7.47;;
50769;SDS011;36740;48.698;11.472;2023-05-01T13:49:14;12.10;;;7.43;;
50769;SDS011;36740;48.698;11.472;2023-05-01T13:52:02;12.38;;;7.55;;
50769;SDS011;36740;48.698;11.472;2023-05-01T13:54:50;10.68;;;7.40;;
50769;SDS011;36740;48.698;11.472;2023-05-01T13:57:37;14.38;;;7.28;;
50769;SDS011;36740;48.698;11.472;2023-05-01T14:00:23;13.98;;;9.55;;
50769;SDS011;36740;48.698;11.472;2023-05-01T14:03:09;11.98;;;6.18;;
50769;SDS011;36740;48.698;11.472;2023-05-01T14:05:54;13.57;;;8.75;;
50769;SDS011;36740;48.698;11.472;2023-05-01T14:08:40;18.63;;;10.43;;
50769;SDS011;36740;48.698;11.472;2023-05-01T14:11:27;24.00;;;11.80;;
50769;SDS011;36740;48.698;11.472;2023-05-01T14:14:16;17.45;;;8.73;;
50769;SDS011;36740;48.698;11.472;2023-05-01T14:17:02;12.52;;;7.70;;
50769;SDS011;36740;48.698;11.472;2023-05-01T14:19:50;9.48;;;6.50;;
50769;SDS011;36740;48.698;11.472;2023-05-01T14:22:40;11.60;;;7.47;;
50769;SDS011;36740;48.698;11.472;2023-05-01T14:25:28;14.57;;;7.45;;
50769;SDS011;36740;48.698;11.472;2023-05-01T14:28:15;12.60;;;8.23;;
50769;SDS011;36740;48.698;11.472;2023-05-01T14:31:01;16.17;;;9.02;;
50769;SDS011;36740;48.698;11.472;2023-05-01T14:33:48;14.68;;;9.35;;
50769;SDS011;36740;48.698;11.472;2023-05-01T14:36:35;12.38;;;7.55;;
50769;SDS011;36740;48.698;11.472;2023-05-01T14:39:20;10.43;;;7.95;;
50769;SDS011;36740;48.698;11.472;2023-05-01T14:42:06;17.40;;;7.68;;
50769;SDS011;36740;48.698;11.472;2023-05-01T14:44:52;9.77;;;7.13;;
50769;SDS011;36740;48.698;11.472;2023-05-01T14:47:38;13.68;;;7.50;;
50769;SDS011;36740;48.698;11.472;2023-05-01T14:50:25;14.48;;;9.35;;
50769;SDS011;36740;48.698;11.472;2023-05-01T14:53:10;12.88;;;7.05;;
50769;SDS011;36740;48.698;11.472;2023-05-01T14:55:58;10.15;;;7.80;;
50769;SDS011;36740;48.698;11.472;2023-05-01T14:58:43;11.48;;;8.57;;
50769;SDS011;36740;48.698;11.472;2023-05-01T15:01:29;17.55;;;9.48;;
50769;SDS011;36740;48.698;11.472;2023-05-01T15:04:14;13.85;;;8.25;;
50769;SDS011;36740;48.698;11.472;2023-05-01T15:07:00;17.17;;;10.25;;
50769;SDS011;36740;48.698;11.472;2023-05-01T15:09:46;12.82;;;8.27;;
50769;SDS011;36740;48.698;11.472;2023-05-01T15:12:31;15.25;;;9.20;;
50769;SDS011;36740;48.698;11.472;2023-05-01T15:15:17;11.05;;;6.68;;
50769;SDS011;36740;48.698;11.472;2023-05-01T15:18:02;12.43;;;9.20;;
50769;SDS011;36740;48.698;11.472;2023-05-01T15:20:48;13.18;;;8.13;;
50769;SDS011;36740;48.698;11.472;2023-05-01T15:23:34;19.83;;;8.35;;
50769;SDS011;36740;48.698;11.472;2023-05-01T15:26:21;12.60;;;7.85;;
50769;SDS011;36740;48.698;11.472;2023-05-01T15:29:07;10.60;;;7.43;;
50769;SDS011;36740;48.698;11.472;2023-05-01T15:31:52;13.07;;;8.32;;
50769;SDS011;36740;48.698;11.472;2023-05-01T15:34:38;12.65;;;7.93;;
50769;SDS011;36740;48.698;11.472;2023-05-01T15:37:24;13.57;;;10.70;;
50769;SDS011;36740;48.698;11.472;2023-05-01T15:40:10;19.15;;;12.38;;
50769;SDS011;36740;48.698;11.472;2023-05-01T15:42:56;10.30;;;9.07;;
50769;SDS011;36740;48.698;11.472;2023-05-01T15:45:42;9.35;;;6.35;;
50769;SDS011;36740;48.698;11.472;2023-05-01T15:48:28;13.93;;;7.07;;
50769;SDS011;36740;48.698;11.472;2023-05-01T15:51:14;16.20;;;7.65;;
50769;SDS011;36740;48.698;11.472;2023-05-01T15:53:59;15.10;;;9.85;;
50769;SDS011;36740;48.698;11.472;2023-05-01T15:56:46;15.38;;;10.57;;
50769;SDS011;36740;48.698;11.472;2023-05-01T15:59:32;12.55;;;7.47;;
50769;SDS011;36740;48.698;11.472;2023-05-01T16:02:17;12.25;;;7.32;;
50769;SDS011;36740;48.698;11.472;2023-05-01T16:05:03;14.80;;;8.85;;
50769;SDS011;36740;48.698;11.472;2023-05-01T16:07:53;10.43;;;6.70;;
50769;SDS011;36740;48.698;11.472;2023-05-01T16:10:39;13.75;;;8.30;;
50769;SDS011;36740;48.698;11.472;2023-05-01T16:13:25;25.80;;;13.52;;
50769;SDS011;36740;48.698;11.472;2023-05-01T16:16:11;13.27;;;8.45;;
50769;SDS011;36740;48.698;11.472;2023-05-01T16:18:58;22.25;;;8.05;;
50769;SDS011;36740;48.698;11.472;2023-05-01T16:21:44;13.43;;;7.85;;
50769;SDS011;36740;48.698;11.472;2023-05-01T16:24:31;9.43;;;7.65;;
50769;SDS011;36740;48.698;11.472;2023-05-01T16:27:16;12.32;;;8.13;;
50769;SDS011;36740;48.698;11.472;2023-05-01T16:30:03;8.95;;;6.28;;
50769;SDS011;36740;48.698;11.472;2023-05-01T16:32:49;11.25;;;6.53;;
50769;SDS011;36740;48.698;11.472;2023-05-01T16:35:34;15.20;;;8.13;;
50769;SDS011;36740;48.698;11.472;2023-05-01T16:38:21;10.43;;;7.10;;
50769;SDS011;36740;48.698;11.472;2023-05-01T16:41:06;10.18;;;8.02;;
50769;SDS011;36740;48.698;11.472;2023-05-01T16:43:52;13.52;;;7.72;;
50769;SDS011;36740;48.698;11.472;2023-05-01T16:46:41;13.32;;;7.50;;